CYRC weather

Chicoutimi St Honoré Airport
Chicoutimi, Quebec, Canada

Public forecast

Using degrees Celsius for public forecast. Weather courtesy of forecast.io.

METAR (pilot weather report)

Closest report is CFB Bagotville, 11.6 nm (21.5 km) S. Retrieved 2019/05/24 00:24 UTC (8 minutes ago):

CYBG 240024Z 11006KT 20SM -RA OVC050 12/08 A2985 RMK SC8 SLP114

TAF (pilot weather forecast)

Forecast is more than 12 hours old.

Closest forecast is CFB Bagotville, 11.6 nm (21.5 km) S. Retrieved 2019/05/23 00:33 UTC (24 hours ago):

TAF TAF CYBG 232330Z 2400/2424 11010KT P6SM SCT020 BKN060 OVC080 TEMPO 2400/2408 6SM -RA BR BKN020 OVC040 FM240800 10005KT P6SM BKN020 OVC040 FM241300 08005KT P6SM BKN040 OVC080 FM241700 08005KT P6SM BKN060 BECMG 2422/2424 VRB03KT RMK NXT FCST BY 240600Z